sensor_id;sensor_type;location;lat;lon;timestamp;P1;durP1;ratioP1;P2;durP2;ratioP2
14770;SDS011;7477;45.222;5.688;2023-03-12T00:02:57;7.78;;;4.07;;
14770;SDS011;7477;45.222;5.688;2023-03-12T00:06:16;5.72;;;4.53;;
14770;SDS011;7477;45.222;5.688;2023-03-12T00:09:37;4.88;;;4.25;;
14770;SDS011;7477;45.222;5.688;2023-03-12T00:12:56;6.65;;;4.40;;
14770;SDS011;7477;45.222;5.688;2023-03-12T00:16:16;9.73;;;4.30;;
14770;SDS011;7477;45.222;5.688;2023-03-12T00:19:35;6.45;;;3.97;;
14770;SDS011;7477;45.222;5.688;2023-03-12T00:22:54;5.70;;;3.80;;
14770;SDS011;7477;45.222;5.688;2023-03-12T00:26:14;7.45;;;3.53;;
14770;SDS011;7477;45.222;5.688;2023-03-12T00:29:34;4.90;;;3.20;;
14770;SDS011;7477;45.222;5.688;2023-03-12T00:32:53;3.88;;;3.00;;
14770;SDS011;7477;45.222;5.688;2023-03-12T00:36:12;8.20;;;4.90;;
14770;SDS011;7477;45.222;5.688;2023-03-12T00:39:31;6.90;;;4.80;;
14770;SDS011;7477;45.222;5.688;2023-03-12T00:42:51;10.57;;;5.70;;
14770;SDS011;7477;45.222;5.688;2023-03-12T00:46:10;8.98;;;5.32;;
14770;SDS011;7477;45.222;5.688;2023-03-12T00:49:30;7.93;;;4.90;;
14770;SDS011;7477;45.222;5.688;2023-03-12T00:52:49;4.60;;;3.70;;
14770;SDS011;7477;45.222;5.688;2023-03-12T00:56:08;4.68;;;3.78;;
14770;SDS011;7477;45.222;5.688;2023-03-12T00:59:28;8.80;;;3.70;;
14770;SDS011;7477;45.222;5.688;2023-03-12T01:02:47;7.13;;;3.78;;
14770;SDS011;7477;45.222;5.688;2023-03-12T01:06:06;5.20;;;3.38;;
14770;SDS011;7477;45.222;5.688;2023-03-12T01:09:25;10.40;;;4.00;;
14770;SDS011;7477;45.222;5.688;2023-03-12T01:12:45;5.75;;;3.92;;
14770;SDS011;7477;45.222;5.688;2023-03-12T01:16:05;4.00;;;3.60;;
14770;SDS011;7477;45.222;5.688;2023-03-12T01:19:24;5.22;;;3.70;;
14770;SDS011;7477;45.222;5.688;2023-03-12T01:22:44;4.70;;;3.50;;
14770;SDS011;7477;45.222;5.688;2023-03-12T01:26:03;6.72;;;3.92;;
14770;SDS011;7477;45.222;5.688;2023-03-12T01:29:22;4.22;;;3.25;;
14770;SDS011;7477;45.222;5.688;2023-03-12T01:32:41;4.03;;;2.38;;
14770;SDS011;7477;45.222;5.688;2023-03-12T01:36:00;3.30;;;2.80;;
14770;SDS011;7477;45.222;5.688;2023-03-12T01:39:20;4.63;;;3.10;;
14770;SDS011;7477;45.222;5.688;2023-03-12T01:42:39;3.97;;;3.00;;
14770;SDS011;7477;45.222;5.688;2023-03-12T01:49:25;3.80;;;3.10;;
14770;SDS011;7477;45.222;5.688;2023-03-12T01:52:48;3.55;;;2.92;;
14770;SDS011;7477;45.222;5.688;2023-03-12T01:56:07;2.55;;;2.25;;
14770;SDS011;7477;45.222;5.688;2023-03-12T01:59:32;3.88;;;2.67;;
14770;SDS011;7477;45.222;5.688;2023-03-12T02:03:01;3.90;;;2.42;;
14770;SDS011;7477;45.222;5.688;2023-03-12T02:06:28;3.17;;;2.30;;
14770;SDS011;7477;45.222;5.688;2023-03-12T02:09:58;2.63;;;2.40;;
14770;SDS011;7477;45.222;5.688;2023-03-12T02:13:18;5.30;;;2.00;;
14770;SDS011;7477;45.222;5.688;2023-03-12T02:16:38;3.55;;;2.72;;
14770;SDS011;7477;45.222;5.688;2023-03-12T02:27:33;4.85;;;3.28;;
14770;SDS011;7477;45.222;5.688;2023-03-12T02:30:59;3.28;;;2.80;;
14770;SDS011;7477;45.222;5.688;2023-03-12T02:34:22;3.33;;;2.42;;
14770;SDS011;7477;45.222;5.688;2023-03-12T02:37:51;2.60;;;2.10;;
14770;SDS011;7477;45.222;5.688;2023-03-12T02:44:31;4.88;;;3.20;;
14770;SDS011;7477;45.222;5.688;2023-03-12T02:47:52;6.00;;;3.45;;
14770;SDS011;7477;45.222;5.688;2023-03-12T02:51:11;4.55;;;3.25;;
14770;SDS011;7477;45.222;5.688;2023-03-12T02:54:30;3.78;;;3.08;;
14770;SDS011;7477;45.222;5.688;2023-03-12T02:57:50;4.47;;;3.50;;
14770;SDS011;7477;45.222;5.688;2023-03-12T03:01:09;4.20;;;3.58;;
14770;SDS011;7477;45.222;5.688;2023-03-12T03:04:28;4.68;;;2.85;;
14770;SDS011;7477;45.222;5.688;2023-03-12T03:07:48;3.95;;;3.55;;
14770;SDS011;7477;45.222;5.688;2023-03-12T03:11:08;3.88;;;3.30;;
14770;SDS011;7477;45.222;5.688;2023-03-12T03:14:27;4.35;;;3.40;;
14770;SDS011;7477;45.222;5.688;2023-03-12T03:17:46;3.88;;;3.00;;
14770;SDS011;7477;45.222;5.688;2023-03-12T03:21:06;5.20;;;3.10;;
14770;SDS011;7477;45.222;5.688;2023-03-12T03:24:27;3.33;;;3.03;;
14770;SDS011;7477;45.222;5.688;2023-03-12T03:27:46;3.85;;;3.00;;
14770;SDS011;7477;45.222;5.688;2023-03-12T03:31:05;4.50;;;3.50;;
14770;SDS011;7477;45.222;5.688;2023-03-12T03:34:25;3.45;;;3.10;;
14770;SDS011;7477;45.222;5.688;2023-03-12T03:37:44;4.07;;;2.90;;
14770;SDS011;7477;45.222;5.688;2023-03-12T03:41:04;4.80;;;3.10;;
14770;SDS011;7477;45.222;5.688;2023-03-12T03:44:23;4.05;;;2.97;;
14770;SDS011;7477;45.222;5.688;2023-03-12T03:47:42;3.38;;;2.83;;
14770;SDS011;7477;45.222;5.688;2023-03-12T03:51:02;3.00;;;2.70;;
14770;SDS011;7477;45.222;5.688;2023-03-12T03:54:23;5.32;;;2.78;;
14770;SDS011;7477;45.222;5.688;2023-03-12T03:57:42;3.10;;;2.50;;
14770;SDS011;7477;45.222;5.688;2023-03-12T04:01:01;3.03;;;2.55;;
14770;SDS011;7477;45.222;5.688;2023-03-12T04:04:20;3.25;;;2.60;;
14770;SDS011;7477;45.222;5.688;2023-03-12T04:07:40;3.53;;;2.90;;
14770;SDS011;7477;45.222;5.688;2023-03-12T04:11:05;4.20;;;2.70;;
14770;SDS011;7477;45.222;5.688;2023-03-12T04:14:26;3.17;;;2.60;;
14770;SDS011;7477;45.222;5.688;2023-03-12T04:17:45;3.13;;;2.55;;
14770;SDS011;7477;45.222;5.688;2023-03-12T04:21:06;2.60;;;2.10;;
14770;SDS011;7477;45.222;5.688;2023-03-12T04:24:26;2.50;;;2.30;;
14770;SDS011;7477;45.222;5.688;2023-03-12T04:27:46;4.88;;;2.60;;
14770;SDS011;7477;45.222;5.688;2023-03-12T04:31:06;2.70;;;2.50;;
14770;SDS011;7477;45.222;5.688;2023-03-12T04:34:25;3.95;;;2.85;;
14770;SDS011;7477;45.222;5.688;2023-03-12T04:37:44;4.32;;;3.00;;
14770;SDS011;7477;45.222;5.688;2023-03-12T04:41:11;3.90;;;3.17;;
14770;SDS011;7477;45.222;5.688;2023-03-12T04:44:31;3.60;;;3.08;;
14770;SDS011;7477;45.222;5.688;2023-03-12T04:47:50;4.72;;;3.10;;
14770;SDS011;7477;45.222;5.688;2023-03-12T04:51:10;3.78;;;2.83;;
14770;SDS011;7477;45.222;5.688;2023-03-12T04:54:30;2.78;;;2.55;;
14770;SDS011;7477;45.222;5.688;2023-03-12T04:57:49;4.68;;;2.78;;
14770;SDS011;7477;45.222;5.688;2023-03-12T05:01:42;4.53;;;2.72;;
14770;SDS011;7477;45.222;5.688;2023-03-12T05:04:55;3.00;;;2.60;;
14770;SDS011;7477;45.222;5.688;2023-03-12T05:08:15;4.00;;;3.25;;
14770;SDS011;7477;45.222;5.688;2023-03-12T05:11:34;5.28;;;3.75;;
14770;SDS011;7477;45.222;5.688;2023-03-12T05:14:53;2.70;;;2.50;;
14770;SDS011;7477;45.222;5.688;2023-03-12T05:18:13;2.97;;;2.78;;
14770;SDS011;7477;45.222;5.688;2023-03-12T05:21:32;2.50;;;2.30;;
14770;SDS011;7477;45.222;5.688;2023-03-12T05:24:51;3.00;;;2.70;;
14770;SDS011;7477;45.222;5.688;2023-03-12T05:28:10;3.65;;;3.05;;
14770;SDS011;7477;45.222;5.688;2023-03-12T05:31:30;4.57;;;3.17;;
14770;SDS011;7477;45.222;5.688;2023-03-12T05:34:52;3.28;;;2.75;;
14770;SDS011;7477;45.222;5.688;2023-03-12T05:38:11;9.32;;;2.83;;
14770;SDS011;7477;45.222;5.688;2023-03-12T05:41:30;3.75;;;3.20;;
14770;SDS011;7477;45.222;5.688;2023-03-12T05:44:50;3.45;;;3.15;;
14770;SDS011;7477;45.222;5.688;2023-03-12T05:48:10;4.93;;;3.10;;
14770;SDS011;7477;45.222;5.688;2023-03-12T05:51:29;5.53;;;3.22;;
14770;SDS011;7477;45.222;5.688;2023-03-12T05:54:50;3.17;;;2.88;;
14770;SDS011;7477;45.222;5.688;2023-03-12T05:58:10;3.75;;;3.40;;
14770;SDS011;7477;45.222;5.688;2023-03-12T06:01:29;3.45;;;3.15;;
14770;SDS011;7477;45.222;5.688;2023-03-12T06:04:49;3.28;;;2.97;;
14770;SDS011;7477;45.222;5.688;2023-03-12T06:08:09;3.30;;;3.00;;
14770;SDS011;7477;45.222;5.688;2023-03-12T06:11:28;4.10;;;3.42;;
14770;SDS011;7477;45.222;5.688;2023-03-12T06:14:47;5.68;;;3.60;;
14770;SDS011;7477;45.222;5.688;2023-03-12T06:18:06;3.72;;;3.13;;
14770;SDS011;7477;45.222;5.688;2023-03-12T06:21:26;3.72;;;3.42;;
14770;SDS011;7477;45.222;5.688;2023-03-12T06:24:50;3.72;;;3.00;;
14770;SDS011;7477;45.222;5.688;2023-03-12T06:28:10;6.03;;;3.53;;
14770;SDS011;7477;45.222;5.688;2023-03-12T06:31:30;3.85;;;3.22;;
14770;SDS011;7477;45.222;5.688;2023-03-12T06:34:49;3.90;;;3.55;;
14770;SDS011;7477;45.222;5.688;2023-03-12T06:38:08;5.13;;;3.88;;
14770;SDS011;7477;45.222;5.688;2023-03-12T06:41:27;3.97;;;3.53;;
14770;SDS011;7477;45.222;5.688;2023-03-12T06:44:47;3.90;;;3.42;;
14770;SDS011;7477;45.222;5.688;2023-03-12T06:48:07;3.95;;;3.55;;
14770;SDS011;7477;45.222;5.688;2023-03-12T06:51:26;3.85;;;2.92;;
14770;SDS011;7477;45.222;5.688;2023-03-12T06:54:45;3.15;;;2.85;;
14770;SDS011;7477;45.222;5.688;2023-03-12T06:58:05;3.38;;;2.90;;
14770;SDS011;7477;45.222;5.688;2023-03-12T07:01:24;3.60;;;3.28;;
14770;SDS011;7477;45.222;5.688;2023-03-12T07:04:43;4.78;;;4.00;;
14770;SDS011;7477;45.222;5.688;2023-03-12T07:08:02;4.10;;;3.55;;
14770;SDS011;7477;45.222;5.688;2023-03-12T07:11:22;4.40;;;3.97;;
14770;SDS011;7477;45.222;5.688;2023-03-12T07:14:41;6.40;;;3.95;;
14770;SDS011;7477;45.222;5.688;2023-03-12T07:18:07;12.80;;;9.65;;
14770;SDS011;7477;45.222;5.688;2023-03-12T07:21:28;9.45;;;7.15;;
14770;SDS011;7477;45.222;5.688;2023-03-12T07:24:49;6.55;;;4.35;;
14770;SDS011;7477;45.222;5.688;2023-03-12T07:28:09;4.55;;;4.15;;
14770;SDS011;7477;45.222;5.688;2023-03-12T07:31:29;5.32;;;4.60;;
14770;SDS011;7477;45.222;5.688;2023-03-12T07:34:49;6.13;;;4.80;;
14770;SDS011;7477;45.222;5.688;2023-03-12T07:38:08;5.50;;;4.63;;
14770;SDS011;7477;45.222;5.688;2023-03-12T07:41:27;7.45;;;4.47;;
14770;SDS011;7477;45.222;5.688;2023-03-12T07:44:46;7.68;;;4.82;;
14770;SDS011;7477;45.222;5.688;2023-03-12T07:48:06;7.20;;;5.70;;
14770;SDS011;7477;45.222;5.688;2023-03-12T07:51:25;6.75;;;4.32;;
14770;SDS011;7477;45.222;5.688;2023-03-12T07:54:44;6.03;;;5.43;;
14770;SDS011;7477;45.222;5.688;2023-03-12T07:58:04;11.07;;;6.80;;
14770;SDS011;7477;45.222;5.688;2023-03-12T08:01:24;8.70;;;6.68;;
14770;SDS011;7477;45.222;5.688;2023-03-12T08:04:49;10.07;;;7.60;;
14770;SDS011;7477;45.222;5.688;2023-03-12T08:08:09;9.52;;;8.38;;
14770;SDS011;7477;45.222;5.688;2023-03-12T08:11:28;6.13;;;5.53;;
14770;SDS011;7477;45.222;5.688;2023-03-12T08:14:49;6.60;;;5.25;;
14770;SDS011;7477;45.222;5.688;2023-03-12T08:18:07;8.40;;;6.93;;
14770;SDS011;7477;45.222;5.688;2023-03-12T08:21:27;7.07;;;6.38;;
14770;SDS011;7477;45.222;5.688;2023-03-12T08:24:46;13.00;;;8.48;;
14770;SDS011;7477;45.222;5.688;2023-03-12T08:28:05;6.72;;;6.05;;
14770;SDS011;7477;45.222;5.688;2023-03-12T08:31:25;7.55;;;5.88;;
14770;SDS011;7477;45.222;5.688;2023-03-12T08:34:45;6.47;;;5.53;;
14770;SDS011;7477;45.222;5.688;2023-03-12T08:38:04;7.05;;;6.35;;
14770;SDS011;7477;45.222;5.688;2023-03-12T08:41:24;7.45;;;5.60;;
14770;SDS011;7477;45.222;5.688;2023-03-12T08:44:43;8.75;;;6.10;;
14770;SDS011;7477;45.222;5.688;2023-03-12T08:48:05;7.30;;;6.03;;
14770;SDS011;7477;45.222;5.688;2023-03-12T08:51:24;6.97;;;5.13;;
14770;SDS011;7477;45.222;5.688;2023-03-12T08:54:44;6.55;;;5.65;;
14770;SDS011;7477;45.222;5.688;2023-03-12T08:58:03;7.05;;;5.50;;
14770;SDS011;7477;45.222;5.688;2023-03-12T09:01:22;8.02;;;5.65;;
14770;SDS011;7477;45.222;5.688;2023-03-12T09:04:42;5.65;;;4.00;;
14770;SDS011;7477;45.222;5.688;2023-03-12T09:08:06;3.90;;;3.45;;
14770;SDS011;7477;45.222;5.688;2023-03-12T09:11:26;2.58;;;2.10;;
14770;SDS011;7477;45.222;5.688;2023-03-12T09:14:45;5.65;;;4.65;;
14770;SDS011;7477;45.222;5.688;2023-03-12T09:18:04;6.40;;;3.80;;
14770;SDS011;7477;45.222;5.688;2023-03-12T09:21:24;5.05;;;3.88;;
14770;SDS011;7477;45.222;5.688;2023-03-12T09:24:43;2.65;;;2.45;;
14770;SDS011;7477;45.222;5.688;2023-03-12T09:28:02;3.42;;;2.38;;
14770;SDS011;7477;45.222;5.688;2023-03-12T09:31:21;4.47;;;2.58;;
14770;SDS011;7477;45.222;5.688;2023-03-12T09:34:41;8.27;;;3.17;;
14770;SDS011;7477;45.222;5.688;2023-03-12T09:38:00;2.85;;;2.60;;
14770;SDS011;7477;45.222;5.688;2023-03-12T09:41:20;2.80;;;2.45;;
14770;SDS011;7477;45.222;5.688;2023-03-12T09:44:43;3.03;;;2.72;;
14770;SDS011;7477;45.222;5.688;2023-03-12T09:48:05;3.55;;;2.30;;
14770;SDS011;7477;45.222;5.688;2023-03-12T09:51:32;4.50;;;2.92;;
14770;SDS011;7477;45.222;5.688;2023-03-12T10:01:51;3.72;;;2.42;;
14770;SDS011;7477;45.222;5.688;2023-03-12T10:05:23;2.90;;;1.65;;
14770;SDS011;7477;45.222;5.688;2023-03-12T10:16:38;4.63;;;1.77;;
14770;SDS011;7477;45.222;5.688;2023-03-12T10:27:34;2.03;;;0.77;;
14770;SDS011;7477;45.222;5.688;2023-03-12T10:30:56;1.15;;;1.02;;
14770;SDS011;7477;45.222;5.688;2023-03-12T10:38:16;1.95;;;0.77;;
14770;SDS011;7477;45.222;5.688;2023-03-12T10:41:44;1.02;;;0.70;;
14770;SDS011;7477;45.222;5.688;2023-03-12T10:48:27;0.88;;;0.77;;
14770;SDS011;7477;45.222;5.688;2023-03-12T10:51:56;0.93;;;0.40;;
14770;SDS011;7477;45.222;5.688;2023-03-12T10:58:48;1.38;;;0.80;;
14770;SDS011;7477;45.222;5.688;2023-03-12T11:05:53;0.40;;;0.40;;
14770;SDS011;7477;45.222;5.688;2023-03-12T11:09:17;1.48;;;0.77;;
14770;SDS011;7477;45.222;5.688;2023-03-12T11:12:38;1.27;;;0.57;;
14770;SDS011;7477;45.222;5.688;2023-03-12T11:16:40;0.55;;;0.43;;
14770;SDS011;7477;45.222;5.688;2023-03-12T11:19:45;1.27;;;0.65;;
14770;SDS011;7477;45.222;5.688;2023-03-12T11:23:27;5.00;;;2.38;;
14770;SDS011;7477;45.222;5.688;2023-03-12T11:30:13;0.80;;;0.77;;
14770;SDS011;7477;45.222;5.688;2023-03-12T11:33:35;0.75;;;0.75;;
14770;SDS011;7477;45.222;5.688;2023-03-12T11:40:27;0.60;;;0.60;;
14770;SDS011;7477;45.222;5.688;2023-03-12T11:47:22;1.52;;;1.15;;
14770;SDS011;7477;45.222;5.688;2023-03-12T11:50:46;1.42;;;0.77;;
14770;SDS011;7477;45.222;5.688;2023-03-12T11:54:36;0.75;;;0.75;;
14770;SDS011;7477;45.222;5.688;2023-03-12T12:05:57;1.10;;;1.00;;
14770;SDS011;7477;45.222;5.688;2023-03-12T12:17:24;3.17;;;1.75;;
14770;SDS011;7477;45.222;5.688;2023-03-12T12:20:55;2.25;;;1.27;;
14770;SDS011;7477;45.222;5.688;2023-03-12T12:31:56;1.45;;;0.77;;
14770;SDS011;7477;45.222;5.688;2023-03-12T12:38:51;2.28;;;1.13;;
14770;SDS011;7477;45.222;5.688;2023-03-12T12:42:15;2.70;;;1.35;;
14770;SDS011;7477;45.222;5.688;2023-03-12T12:45:40;2.75;;;1.25;;
14770;SDS011;7477;45.222;5.688;2023-03-12T12:49:02;0.93;;;0.73;;
14770;SDS011;7477;45.222;5.688;2023-03-12T12:52:28;2.40;;;1.30;;
14770;SDS011;7477;45.222;5.688;2023-03-12T12:55:51;1.52;;;1.27;;
14770;SDS011;7477;45.222;5.688;2023-03-12T13:02:41;0.80;;;0.80;;
14770;SDS011;7477;45.222;5.688;2023-03-12T13:06:05;2.25;;;1.95;;
14770;SDS011;7477;45.222;5.688;2023-03-12T13:12:58;3.40;;;1.98;;
14770;SDS011;7477;45.222;5.688;2023-03-12T13:16:37;1.42;;;1.25;;
14770;SDS011;7477;45.222;5.688;2023-03-12T13:26:52;6.63;;;2.90;;
14770;SDS011;7477;45.222;5.688;2023-03-12T13:33:51;1.23;;;0.80;;
14770;SDS011;7477;45.222;5.688;2023-03-12T13:37:19;0.70;;;0.60;;
14770;SDS011;7477;45.222;5.688;2023-03-12T13:47:56;2.03;;;1.35;;
14770;SDS011;7477;45.222;5.688;2023-03-12T13:51:19;0.98;;;0.85;;
14770;SDS011;7477;45.222;5.688;2023-03-12T13:54:45;1.58;;;0.90;;
14770;SDS011;7477;45.222;5.688;2023-03-12T13:58:08;0.98;;;0.88;;
14770;SDS011;7477;45.222;5.688;2023-03-12T14:01:39;0.90;;;0.82;;
14770;SDS011;7477;45.222;5.688;2023-03-12T14:05:04;1.73;;;0.70;;
14770;SDS011;7477;45.222;5.688;2023-03-12T14:12:13;2.22;;;1.02;;
14770;SDS011;7477;45.222;5.688;2023-03-12T14:19:43;1.33;;;0.90;;
14770;SDS011;7477;45.222;5.688;2023-03-12T14:23:06;5.53;;;3.17;;
14770;SDS011;7477;45.222;5.688;2023-03-12T14:26:32;1.10;;;0.70;;
14770;SDS011;7477;45.222;5.688;2023-03-12T14:29:57;2.50;;;0.95;;
14770;SDS011;7477;45.222;5.688;2023-03-12T14:33:25;1.35;;;0.90;;
14770;SDS011;7477;45.222;5.688;2023-03-12T14:36:54;1.27;;;0.73;;
14770;SDS011;7477;45.222;5.688;2023-03-12T14:40:22;1.27;;;0.90;;
14770;SDS011;7477;45.222;5.688;2023-03-12T14:43:44;1.10;;;1.00;;
14770;SDS011;7477;45.222;5.688;2023-03-12T14:47:05;1.20;;;1.00;;
14770;SDS011;7477;45.222;5.688;2023-03-12T14:50:35;1.08;;;0.57;;
14770;SDS011;7477;45.222;5.688;2023-03-12T14:54:00;0.90;;;0.80;;
14770;SDS011;7477;45.222;5.688;2023-03-12T14:57:20;1.02;;;0.80;;
14770;SDS011;7477;45.222;5.688;2023-03-12T15:00:42;1.98;;;1.15;;
14770;SDS011;7477;45.222;5.688;2023-03-12T15:04:05;2.35;;;1.33;;
14770;SDS011;7477;45.222;5.688;2023-03-12T15:07:35;0.80;;;0.80;;
14770;SDS011;7477;45.222;5.688;2023-03-12T15:10:57;1.02;;;0.90;;
14770;SDS011;7477;45.222;5.688;2023-03-12T15:14:16;1.33;;;1.10;;
14770;SDS011;7477;45.222;5.688;2023-03-12T15:17:35;1.17;;;1.00;;
14770;SDS011;7477;45.222;5.688;2023-03-12T15:20:56;1.20;;;0.90;;
14770;SDS011;7477;45.222;5.688;2023-03-12T15:24:17;1.85;;;1.25;;
14770;SDS011;7477;45.222;5.688;2023-03-12T15:27:37;1.67;;;0.90;;
14770;SDS011;7477;45.222;5.688;2023-03-12T15:31:03;2.38;;;1.20;;
14770;SDS011;7477;45.222;5.688;2023-03-12T15:34:30;1.73;;;1.15;;
14770;SDS011;7477;45.222;5.688;2023-03-12T15:37:54;1.70;;;1.25;;
14770;SDS011;7477;45.222;5.688;2023-03-12T15:41:16;1.38;;;1.10;;
14770;SDS011;7477;45.222;5.688;2023-03-12T15:44:43;1.98;;;1.20;;
14770;SDS011;7477;45.222;5.688;2023-03-12T15:48:28;1.70;;;1.08;;
14770;SDS011;7477;45.222;5.688;2023-03-12T15:52:03;2.35;;;1.08;;
14770;SDS011;7477;45.222;5.688;2023-03-12T15:55:23;1.48;;;0.80;;
14770;SDS011;7477;45.222;5.688;2023-03-12T15:58:45;3.45;;;1.42;;
14770;SDS011;7477;45.222;5.688;2023-03-12T16:02:08;2.28;;;1.00;;
14770;SDS011;7477;45.222;5.688;2023-03-12T16:05:31;1.23;;;0.85;;
14770;SDS011;7477;45.222;5.688;2023-03-12T16:08:54;2.47;;;1.38;;
14770;SDS011;7477;45.222;5.688;2023-03-12T16:12:15;2.00;;;0.85;;
14770;SDS011;7477;45.222;5.688;2023-03-12T16:15:38;3.30;;;1.95;;
14770;SDS011;7477;45.222;5.688;2023-03-12T16:18:58;3.20;;;1.05;;
14770;SDS011;7477;45.222;5.688;2023-03-12T16:22:18;2.60;;;1.80;;
14770;SDS011;7477;45.222;5.688;2023-03-12T16:25:38;2.15;;;1.70;;
14770;SDS011;7477;45.222;5.688;2023-03-12T16:29:00;2.08;;;1.20;;
14770;SDS011;7477;45.222;5.688;2023-03-12T16:32:20;1.20;;;1.10;;
14770;SDS011;7477;45.222;5.688;2023-03-12T16:35:40;2.75;;;1.40;;
14770;SDS011;7477;45.222;5.688;2023-03-12T16:39:00;2.60;;;1.23;;
14770;SDS011;7477;45.222;5.688;2023-03-12T16:42:19;1.35;;;1.20;;
14770;SDS011;7477;45.222;5.688;2023-03-12T16:45:38;4.45;;;1.20;;
14770;SDS011;7477;45.222;5.688;2023-03-12T16:49:01;3.33;;;1.40;;
14770;SDS011;7477;45.222;5.688;2023-03-12T16:52:22;2.15;;;1.50;;
14770;SDS011;7477;45.222;5.688;2023-03-12T16:55:45;3.63;;;1.58;;
14770;SDS011;7477;45.222;5.688;2023-03-12T16:59:21;2.08;;;1.50;;
14770;SDS011;7477;45.222;5.688;2023-03-12T17:02:43;1.85;;;1.42;;
14770;SDS011;7477;45.222;5.688;2023-03-12T17:06:03;3.50;;;1.60;;
14770;SDS011;7477;45.222;5.688;2023-03-12T17:09:24;4.07;;;2.05;;
14770;SDS011;7477;45.222;5.688;2023-03-12T17:12:43;14.65;;;7.50;;
14770;SDS011;7477;45.222;5.688;2023-03-12T17:16:03;1.25;;;1.15;;
14770;SDS011;7477;45.222;5.688;2023-03-12T17:19:22;1.02;;;0.90;;
14770;SDS011;7477;45.222;5.688;2023-03-12T17:22:42;3.65;;;1.60;;
14770;SDS011;7477;45.222;5.688;2023-03-12T17:26:02;2.78;;;1.92;;
14770;SDS011;7477;45.222;5.688;2023-03-12T17:29:22;1.60;;;1.48;;
14770;SDS011;7477;45.222;5.688;2023-03-12T17:32:41;2.05;;;1.70;;
14770;SDS011;7477;45.222;5.688;2023-03-12T17:36:01;2.88;;;1.58;;
14770;SDS011;7477;45.222;5.688;2023-03-12T17:39:23;3.35;;;1.90;;
14770;SDS011;7477;45.222;5.688;2023-03-12T17:42:43;4.13;;;2.17;;
14770;SDS011;7477;45.222;5.688;2023-03-12T17:46:03;2.08;;;1.58;;
14770;SDS011;7477;45.222;5.688;2023-03-12T17:49:24;2.53;;;1.30;;
14770;SDS011;7477;45.222;5.688;2023-03-12T17:52:43;4.78;;;3.90;;
14770;SDS011;7477;45.222;5.688;2023-03-12T17:56:03;7.10;;;6.03;;
14770;SDS011;7477;45.222;5.688;2023-03-12T17:59:24;2.42;;;1.52;;
14770;SDS011;7477;45.222;5.688;2023-03-12T18:02:43;2.22;;;1.80;;
14770;SDS011;7477;45.222;5.688;2023-03-12T18:06:02;2.92;;;2.40;;
14770;SDS011;7477;45.222;5.688;2023-03-12T18:09:22;4.25;;;2.42;;
14770;SDS011;7477;45.222;5.688;2023-03-12T18:12:41;4.55;;;2.55;;
14770;SDS011;7477;45.222;5.688;2023-03-12T18:16:01;2.70;;;2.25;;
14770;SDS011;7477;45.222;5.688;2023-03-12T18:19:20;2.92;;;1.90;;
14770;SDS011;7477;45.222;5.688;2023-03-12T18:22:41;1.67;;;1.58;;
14770;SDS011;7477;45.222;5.688;2023-03-12T18:26:01;2.97;;;1.67;;
14770;SDS011;7477;45.222;5.688;2023-03-12T18:29:21;1.67;;;1.55;;
14770;SDS011;7477;45.222;5.688;2023-03-12T18:32:41;5.53;;;5.03;;
14770;SDS011;7477;45.222;5.688;2023-03-12T18:36:00;4.93;;;2.63;;
14770;SDS011;7477;45.222;5.688;2023-03-12T18:39:20;2.15;;;1.75;;
14770;SDS011;7477;45.222;5.688;2023-03-12T18:42:39;10.57;;;8.82;;
14770;SDS011;7477;45.222;5.688;2023-03-12T18:46:02;5.20;;;3.33;;
14770;SDS011;7477;45.222;5.688;2023-03-12T18:49:21;2.30;;;1.60;;
14770;SDS011;7477;45.222;5.688;2023-03-12T18:52:41;3.67;;;2.13;;
14770;SDS011;7477;45.222;5.688;2023-03-12T18:56:02;3.83;;;1.73;;
14770;SDS011;7477;45.222;5.688;2023-03-12T18:59:21;2.05;;;1.73;;
14770;SDS011;7477;45.222;5.688;2023-03-12T19:02:41;2.10;;;1.80;;
14770;SDS011;7477;45.222;5.688;2023-03-12T19:06:04;7.53;;;5.15;;
14770;SDS011;7477;45.222;5.688;2023-03-12T19:09:26;2.83;;;1.95;;
14770;SDS011;7477;45.222;5.688;2023-03-12T19:12:45;2.08;;;1.85;;
14770;SDS011;7477;45.222;5.688;2023-03-12T19:16:05;5.38;;;2.90;;
14770;SDS011;7477;45.222;5.688;2023-03-12T19:19:27;3.70;;;2.45;;
14770;SDS011;7477;45.222;5.688;2023-03-12T19:22:46;3.60;;;2.15;;
14770;SDS011;7477;45.222;5.688;2023-03-12T19:26:05;3.88;;;2.50;;
14770;SDS011;7477;45.222;5.688;2023-03-12T19:29:25;3.03;;;2.25;;
14770;SDS011;7477;45.222;5.688;2023-03-12T19:32:44;3.60;;;2.28;;
14770;SDS011;7477;45.222;5.688;2023-03-12T19:36:03;2.47;;;2.20;;
14770;SDS011;7477;45.222;5.688;2023-03-12T19:39:23;3.92;;;3.08;;
14770;SDS011;7477;45.222;5.688;2023-03-12T19:42:42;5.75;;;3.50;;
14770;SDS011;7477;45.222;5.688;2023-03-12T19:46:02;9.80;;;5.60;;
14770;SDS011;7477;45.222;5.688;2023-03-12T19:49:23;9.50;;;4.78;;
14770;SDS011;7477;45.222;5.688;2023-03-12T19:52:43;6.70;;;3.97;;
14770;SDS011;7477;45.222;5.688;2023-03-12T19:56:02;7.60;;;4.35;;
14770;SDS011;7477;45.222;5.688;2023-03-12T19:59:22;5.20;;;3.90;;
14770;SDS011;7477;45.222;5.688;2023-03-12T20:02:42;5.30;;;3.10;;
14770;SDS011;7477;45.222;5.688;2023-03-12T20:06:05;4.43;;;3.67;;
14770;SDS011;7477;45.222;5.688;2023-03-12T20:09:26;6.90;;;3.05;;
14770;SDS011;7477;45.222;5.688;2023-03-12T20:12:45;2.65;;;2.08;;
14770;SDS011;7477;45.222;5.688;2023-03-12T20:16:05;5.45;;;2.10;;
14770;SDS011;7477;45.222;5.688;2023-03-12T20:19:25;2.80;;;2.25;;
14770;SDS011;7477;45.222;5.688;2023-03-12T20:22:44;2.05;;;1.83;;
14770;SDS011;7477;45.222;5.688;2023-03-12T20:26:03;2.00;;;1.80;;
14770;SDS011;7477;45.222;5.688;2023-03-12T20:29:23;3.15;;;2.35;;
14770;SDS011;7477;45.222;5.688;2023-03-12T20:32:42;2.85;;;2.00;;
14770;SDS011;7477;45.222;5.688;2023-03-12T20:36:05;2.83;;;2.10;;
14770;SDS011;7477;45.222;5.688;2023-03-12T20:39:26;4.22;;;1.95;;
14770;SDS011;7477;45.222;5.688;2023-03-12T20:42:45;3.70;;;1.80;;
14770;SDS011;7477;45.222;5.688;2023-03-12T20:46:05;2.53;;;1.70;;
14770;SDS011;7477;45.222;5.688;2023-03-12T20:49:24;3.60;;;2.35;;
14770;SDS011;7477;45.222;5.688;2023-03-12T20:52:43;5.90;;;2.55;;
14770;SDS011;7477;45.222;5.688;2023-03-12T20:56:02;5.85;;;2.83;;
14770;SDS011;7477;45.222;5.688;2023-03-12T20:59:22;5.70;;;3.10;;
14770;SDS011;7477;45.222;5.688;2023-03-12T21:02:42;6.45;;;3.15;;
14770;SDS011;7477;45.222;5.688;2023-03-12T21:06:01;3.33;;;2.47;;
14770;SDS011;7477;45.222;5.688;2023-03-12T21:09:21;3.78;;;2.75;;
14770;SDS011;7477;45.222;5.688;2023-03-12T21:12:41;4.43;;;2.08;;
14770;SDS011;7477;45.222;5.688;2023-03-12T21:16:00;4.00;;;2.30;;
14770;SDS011;7477;45.222;5.688;2023-03-12T21:19:22;3.20;;;2.20;;
14770;SDS011;7477;45.222;5.688;2023-03-12T21:22:42;3.33;;;1.80;;
14770;SDS011;7477;45.222;5.688;2023-03-12T21:26:02;3.55;;;2.25;;
14770;SDS011;7477;45.222;5.688;2023-03-12T21:29:23;3.45;;;2.30;;
14770;SDS011;7477;45.222;5.688;2023-03-12T21:32:42;3.83;;;2.15;;
14770;SDS011;7477;45.222;5.688;2023-03-12T21:36:02;3.08;;;2.03;;
14770;SDS011;7477;45.222;5.688;2023-03-12T21:39:26;4.80;;;2.30;;
14770;SDS011;7477;45.222;5.688;2023-03-12T21:42:45;5.10;;;2.60;;
14770;SDS011;7477;45.222;5.688;2023-03-12T21:46:05;2.53;;;2.33;;
14770;SDS011;7477;45.222;5.688;2023-03-12T21:49:25;2.88;;;2.33;;
14770;SDS011;7477;45.222;5.688;2023-03-12T21:52:45;3.25;;;2.22;;
14770;SDS011;7477;45.222;5.688;2023-03-12T21:56:08;4.47;;;2.63;;
14770;SDS011;7477;45.222;5.688;2023-03-12T21:59:28;3.45;;;1.90;;
14770;SDS011;7477;45.222;5.688;2023-03-12T22:02:48;3.10;;;1.90;;
14770;SDS011;7477;45.222;5.688;2023-03-12T22:06:08;5.35;;;2.20;;
14770;SDS011;7477;45.222;5.688;2023-03-12T22:09:28;2.63;;;2.08;;
14770;SDS011;7477;45.222;5.688;2023-03-12T22:12:48;3.53;;;2.00;;
14770;SDS011;7477;45.222;5.688;2023-03-12T22:16:07;8.07;;;2.33;;
14770;SDS011;7477;45.222;5.688;2023-03-12T22:19:29;2.22;;;1.75;;
14770;SDS011;7477;45.222;5.688;2023-03-12T22:22:48;4.70;;;2.05;;
14770;SDS011;7477;45.222;5.688;2023-03-12T22:26:07;2.75;;;1.80;;
14770;SDS011;7477;45.222;5.688;2023-03-12T22:29:26;3.53;;;2.45;;
14770;SDS011;7477;45.222;5.688;2023-03-12T22:32:46;2.17;;;1.83;;